sensor_id;sensor_type;location;lat;lon;timestamp;pressure;altitude;pressure_sealevel;temperature;humidity
39897;BME280;25567;48.276;14.242;2022-10-31T00:00:47;98911.72;;;9.30;100.00
39897;BME280;25567;48.276;14.242;2022-10-31T00:03:15;98911.72;;;9.30;100.00
39897;BME280;25567;48.276;14.242;2022-10-31T00:05:43;98912.34;;;9.26;100.00
39897;BME280;25567;48.276;14.242;2022-10-31T00:08:10;98923.13;;;9.24;100.00
39897;BME280;25567;48.276;14.242;2022-10-31T00:10:38;98920.09;;;9.21;100.00
39897;BME280;25567;48.276;14.242;2022-10-31T00:13:06;98925.41;;;9.21;100.00
39897;BME280;25567;48.276;14.242;2022-10-31T00:15:34;98921.91;;;9.20;100.00
39897;BME280;25567;48.276;14.242;2022-10-31T00:18:01;98924.19;;;9.16;100.00
39897;BME280;25567;48.276;14.242;2022-10-31T00:20:29;98923.56;;;9.21;100.00
39897;BME280;25567;48.276;14.242;2022-10-31T00:22:58;98925.78;;;9.24;100.00
39897;BME280;25567;48.276;14.242;2022-10-31T00:25:26;98924.75;;;9.25;100.00
39897;BME280;25567;48.276;14.242;2022-10-31T00:27:53;98928.81;;;9.28;100.00
39897;BME280;25567;48.276;14.242;2022-10-31T00:30:20;98934.91;;;9.28;100.00
39897;BME280;25567;48.276;14.242;2022-10-31T00:32:47;98930.25;;;9.30;100.00
39897;BME280;25567;48.276;14.242;2022-10-31T00:35:13;98918.63;;;9.31;100.00
39897;BME280;25567;48.276;14.242;2022-10-31T00:37:40;98930.84;;;9.32;100.00
39897;BME280;25567;48.276;14.242;2022-10-31T00:40:07;98931.66;;;9.33;100.00
39897;BME280;25567;48.276;14.242;2022-10-31T00:42:34;98929.81;;;9.33;100.00
39897;BME280;25567;48.276;14.242;2022-10-31T00:45:01;98931.22;;;9.36;100.00
39897;BME280;25567;48.276;14.242;2022-10-31T00:47:28;98937.16;;;9.38;100.00
39897;BME280;25567;48.276;14.242;2022-10-31T00:49:54;98942.44;;;9.38;100.00
39897;BME280;25567;48.276;14.242;2022-10-31T00:52:21;98936.53;;;9.36;100.00
39897;BME280;25567;48.276;14.242;2022-10-31T00:54:48;98940.00;;;9.37;100.00
39897;BME280;25567;48.276;14.242;2022-10-31T00:57:14;98945.88;;;9.39;100.00
39897;BME280;25567;48.276;14.242;2022-10-31T00:59:41;98939.78;;;9.38;100.00
39897;BME280;25567;48.276;14.242;2022-10-31T01:02:08;98943.84;;;9.41;100.00
39897;BME280;25567;48.276;14.242;2022-10-31T01:04:34;98939.16;;;9.43;100.00
39897;BME280;25567;48.276;14.242;2022-10-31T01:07:01;98942.44;;;9.38;100.00
39897;BME280;25567;48.276;14.242;2022-10-31T01:09:28;98941.44;;;9.32;100.00
39897;BME280;25567;48.276;14.242;2022-10-31T01:11:54;98935.31;;;9.39;100.00
39897;BME280;25567;48.276;14.242;2022-10-31T01:14:26;98945.66;;;9.47;100.00
39897;BME280;25567;48.276;14.242;2022-10-31T01:16:53;98937.69;;;9.60;100.00
39897;BME280;25567;48.276;14.242;2022-10-31T01:19:19;98940.97;;;9.49;100.00
39897;BME280;25567;48.276;14.242;2022-10-31T01:21:46;98940.00;;;9.43;100.00
39897;BME280;25567;48.276;14.242;2022-10-31T01:24:13;98939.59;;;9.40;100.00
39897;BME280;25567;48.276;14.242;2022-10-31T01:26:39;98935.31;;;9.39;100.00
39897;BME280;25567;48.276;14.242;2022-10-31T01:29:07;98929.63;;;9.35;100.00
39897;BME280;25567;48.276;14.242;2022-10-31T01:31:37;98929.63;;;9.35;100.00
39897;BME280;25567;48.276;14.242;2022-10-31T01:34:05;98930.84;;;9.32;100.00
39897;BME280;25567;48.276;14.242;2022-10-31T01:36:35;98933.69;;;9.31;100.00
39897;BME280;25567;48.276;14.242;2022-10-31T01:39:07;98930.41;;;9.42;100.00
39897;BME280;25567;48.276;14.242;2022-10-31T01:41:37;98930.03;;;9.32;100.00
39897;BME280;25567;48.276;14.242;2022-10-31T01:46:57;98927.59;;;9.30;100.00
39897;BME280;25567;48.276;14.242;2022-10-31T01:52:08;98930.88;;;9.26;100.00
39897;BME280;25567;48.276;14.242;2022-10-31T01:54:40;98925.78;;;9.24;100.00
39897;BME280;25567;48.276;14.242;2022-10-31T01:57:10;98927.00;;;9.22;100.00
39897;BME280;25567;48.276;14.242;2022-10-31T01:59:43;98928.84;;;9.21;100.00
39897;BME280;25567;48.276;14.242;2022-10-31T02:02:12;98928.03;;;9.21;100.00
39897;BME280;25567;48.276;14.242;2022-10-31T02:04:41;98929.25;;;9.25;100.00
39897;BME280;25567;48.276;14.242;2022-10-31T02:07:11;98929.47;;;9.23;100.00
39897;BME280;25567;48.276;14.242;2022-10-31T02:09:40;98928.66;;;9.16;100.00
39897;BME280;25567;48.276;14.242;2022-10-31T02:12:09;98927.84;;;9.15;100.00
39897;BME280;25567;48.276;14.242;2022-10-31T02:14:37;98940.66;;;9.18;100.00
39897;BME280;25567;48.276;14.242;2022-10-31T02:17:04;98934.75;;;9.23;100.00
39897;BME280;25567;48.276;14.242;2022-10-31T02:19:34;98930.91;;;9.19;100.00
39897;BME280;25567;48.276;14.242;2022-10-31T02:27:36;98935.56;;;9.17;100.00
39897;BME280;25567;48.276;14.242;2022-10-31T02:30:15;98931.28;;;9.16;100.00
39897;BME280;25567;48.276;14.242;2022-10-31T02:32:50;98931.72;;;9.13;100.00
39897;BME280;25567;48.276;14.242;2022-10-31T02:38:04;98934.13;;;9.21;100.00
39897;BME280;25567;48.276;14.242;2022-10-31T02:40:39;98920.69;;;9.23;100.00
39897;BME280;25567;48.276;14.242;2022-10-31T02:43:12;98929.66;;;9.22;100.00
39897;BME280;25567;48.276;14.242;2022-10-31T02:46:03;98925.59;;;9.26;100.00
39897;BME280;25567;48.276;14.242;2022-10-31T02:48:36;98926.97;;;9.28;100.00
39897;BME280;25567;48.276;14.242;2022-10-31T02:51:05;98929.59;;;9.42;100.00
39897;BME280;25567;48.276;14.242;2022-10-31T02:53:34;98925.56;;;9.32;100.00
39897;BME280;25567;48.276;14.242;2022-10-31T02:56:07;98928.03;;;9.27;100.00
39897;BME280;25567;48.276;14.242;2022-10-31T02:58:40;98934.53;;;9.25;100.00
39897;BME280;25567;48.276;14.242;2022-10-31T03:06:54;98929.59;;;9.42;100.00
39897;BME280;25567;48.276;14.242;2022-10-31T03:12:20;98936.97;;;9.33;100.00
39897;BME280;25567;48.276;14.242;2022-10-31T03:15:00;98933.69;;;9.31;100.00
39897;BME280;25567;48.276;14.242;2022-10-31T03:17:39;98935.09;;;9.33;100.00
39897;BME280;25567;48.276;14.242;2022-10-31T03:20:10;98940.56;;;9.45;100.00
39897;BME280;25567;48.276;14.242;2022-10-31T03:22:40;98943.06;;;9.33;100.00
39897;BME280;25567;48.276;14.242;2022-10-31T03:25:09;98944.09;;;9.32;100.00
39897;BME280;25567;48.276;14.242;2022-10-31T03:27:42;98938.41;;;9.22;100.00
39897;BME280;25567;48.276;14.242;2022-10-31T03:30:10;98939.22;;;9.23;100.00
39897;BME280;25567;48.276;14.242;2022-10-31T03:32:48;98930.06;;;9.18;100.00
39897;BME280;25567;48.276;14.242;2022-10-31T03:35:18;98943.09;;;9.20;100.00
39897;BME280;25567;48.276;14.242;2022-10-31T03:37:47;98937.97;;;9.32;100.00
39897;BME280;25567;48.276;14.242;2022-10-31T03:40:16;98941.03;;;9.29;100.00
39897;BME280;25567;48.276;14.242;2022-10-31T03:42:51;98943.66;;;9.35;100.00
39897;BME280;25567;48.276;14.242;2022-10-31T03:45:23;98948.34;;;9.33;100.00
39897;BME280;25567;48.276;14.242;2022-10-31T03:47:51;98949.38;;;9.32;100.00
39897;BME280;25567;48.276;14.242;2022-10-31T03:50:19;98944.69;;;9.28;100.00
39897;BME280;25567;48.276;14.242;2022-10-31T03:52:51;98947.13;;;9.29;100.00
39897;BME280;25567;48.276;14.242;2022-10-31T03:55:28;98948.78;;;9.30;100.00
39897;BME280;25567;48.276;14.242;2022-10-31T03:58:03;98956.09;;;9.28;100.00
39897;BME280;25567;48.276;14.242;2022-10-31T04:00:32;98950.00;;;9.28;100.00
39897;BME280;25567;48.276;14.242;2022-10-31T04:03:04;98947.13;;;9.29;100.00
39897;BME280;25567;48.276;14.242;2022-10-31T04:05:33;98948.78;;;9.30;100.00
39897;BME280;25567;48.276;14.242;2022-10-31T04:08:03;98948.56;;;9.32;100.00
39897;BME280;25567;48.276;14.242;2022-10-31T04:10:32;98954.06;;;9.30;100.00
39897;BME280;25567;48.276;14.242;2022-10-31T04:13:04;98952.44;;;9.29;100.00
39897;BME280;25567;48.276;14.242;2022-10-31T04:15:32;98949.56;;;9.31;100.00
39897;BME280;25567;48.276;14.242;2022-10-31T04:18:00;98956.50;;;9.32;100.00
39897;BME280;25567;48.276;14.242;2022-10-31T04:22:59;98950.81;;;9.28;100.00
39897;BME280;25567;48.276;14.242;2022-10-31T04:25:26;98956.53;;;9.25;100.00
39897;BME280;25567;48.276;14.242;2022-10-31T04:27:53;98958.16;;;9.26;100.00
39897;BME280;25567;48.276;14.242;2022-10-31T04:30:21;98959.34;;;9.37;100.00
39897;BME280;25567;48.276;14.242;2022-10-31T04:32:47;98960.53;;;9.41;100.00
39897;BME280;25567;48.276;14.242;2022-10-31T04:35:14;98950.81;;;9.35;100.00
39897;BME280;25567;48.276;14.242;2022-10-31T04:37:42;98957.34;;;9.26;100.00
39897;BME280;25567;48.276;14.242;2022-10-31T04:40:09;98950.81;;;9.28;100.00
39897;BME280;25567;48.276;14.242;2022-10-31T04:42:36;98950.00;;;9.28;100.00
39897;BME280;25567;48.276;14.242;2022-10-31T04:45:02;98946.56;;;9.27;100.00
39897;BME280;25567;48.276;14.242;2022-10-31T04:47:32;98954.50;;;9.27;100.00
39897;BME280;25567;48.276;14.242;2022-10-31T04:50:00;98946.75;;;9.26;100.00
39897;BME280;25567;48.276;14.242;2022-10-31T04:52:26;98952.84;;;9.26;100.00
39897;BME280;25567;48.276;14.242;2022-10-31T04:54:53;98953.88;;;9.25;100.00
39897;BME280;25567;48.276;14.242;2022-10-31T04:57:20;98957.72;;;9.36;100.00
39897;BME280;25567;48.276;14.242;2022-10-31T04:59:47;98957.28;;;9.46;100.00
39897;BME280;25567;48.276;14.242;2022-10-31T05:02:14;98957.72;;;9.36;100.00
39897;BME280;25567;48.276;14.242;2022-10-31T05:04:40;98964.47;;;9.25;100.00
39897;BME280;25567;48.276;14.242;2022-10-31T05:07:07;98958.09;;;9.46;100.00
39897;BME280;25567;48.276;14.242;2022-10-31T05:09:34;98958.94;;;9.33;100.00
39897;BME280;25567;48.276;14.242;2022-10-31T05:12:03;98956.53;;;9.25;100.00
39897;BME280;25567;48.276;14.242;2022-10-31T05:14:29;98960.78;;;9.26;100.00
39897;BME280;25567;48.276;14.242;2022-10-31T05:16:56;98959.78;;;9.27;100.00
39897;BME280;25567;48.276;14.242;2022-10-31T05:19:23;98962.44;;;9.27;100.00
39897;BME280;25567;48.276;14.242;2022-10-31T05:21:49;98962.66;;;9.26;100.00
39897;BME280;25567;48.276;14.242;2022-10-31T05:24:16;98962.44;;;9.27;100.00
39897;BME280;25567;48.276;14.242;2022-10-31T05:26:43;98957.72;;;9.29;100.00
39897;BME280;25567;48.276;14.242;2022-10-31T05:29:09;98954.50;;;9.27;100.00
39897;BME280;25567;48.276;14.242;2022-10-31T05:31:36;98956.94;;;9.29;100.00
39897;BME280;25567;48.276;14.242;2022-10-31T05:34:03;98964.25;;;9.27;100.00
39897;BME280;25567;48.276;14.242;2022-10-31T05:36:29;98965.06;;;9.27;100.00
39897;BME280;25567;48.276;14.242;2022-10-31T05:38:56;98958.56;;;9.23;100.00
39897;BME280;25567;48.276;14.242;2022-10-31T05:41:23;98960.19;;;9.24;100.00
39897;BME280;25567;48.276;14.242;2022-10-31T05:43:49;98954.09;;;9.24;100.00
39897;BME280;25567;48.276;14.242;2022-10-31T05:46:16;98956.09;;;9.42;100.00
39897;BME280;25567;48.276;14.242;2022-10-31T05:48:43;98957.25;;;9.52;100.00
39897;BME280;25567;48.276;14.242;2022-10-31T05:51:09;98953.63;;;9.33;100.00
39897;BME280;25567;48.276;14.242;2022-10-31T05:53:36;98954.06;;;9.30;100.00
39897;BME280;25567;48.276;14.242;2022-10-31T05:56:02;98956.31;;;9.27;100.00
39897;BME280;25567;48.276;14.242;2022-10-31T05:58:29;98951.22;;;9.32;100.00
39897;BME280;25567;48.276;14.242;2022-10-31T06:00:56;98950.00;;;9.28;100.00
39897;BME280;25567;48.276;14.242;2022-10-31T06:03:22;98958.38;;;9.18;100.00
39897;BME280;25567;48.276;14.242;2022-10-31T06:05:49;98954.25;;;9.35;100.00
39897;BME280;25567;48.276;14.242;2022-10-31T06:08:20;98962.25;;;9.22;100.00
39897;BME280;25567;48.276;14.242;2022-10-31T06:10:47;98963.88;;;9.16;100.00
39897;BME280;25567;48.276;14.242;2022-10-31T06:13:14;98967.31;;;9.24;100.00
39897;BME280;25567;48.276;14.242;2022-10-31T06:15:41;98967.75;;;9.14;100.00
39897;BME280;25567;48.276;14.242;2022-10-31T06:18:08;98982.41;;;9.16;100.00
39897;BME280;25567;48.276;14.242;2022-10-31T06:20:35;98978.53;;;9.19;100.00
39897;BME280;25567;48.276;14.242;2022-10-31T06:23:03;98978.34;;;9.21;100.00
39897;BME280;25567;48.276;14.242;2022-10-31T06:25:30;98988.69;;;9.22;100.00
39897;BME280;25567;48.276;14.242;2022-10-31T06:27:57;98989.50;;;9.23;100.00
39897;BME280;25567;48.276;14.242;2022-10-31T06:30:24;98996.66;;;9.22;100.00
39897;BME280;25567;48.276;14.242;2022-10-31T06:32:51;98996.84;;;9.21;100.00
39897;BME280;25567;48.276;14.242;2022-10-31T06:35:18;98985.22;;;9.22;100.00
39897;BME280;25567;48.276;14.242;2022-10-31T06:37:53;98993.38;;;9.20;100.00
39897;BME280;25567;48.276;14.242;2022-10-31T06:40:20;98996.66;;;9.22;100.00
39897;BME280;25567;48.276;14.242;2022-10-31T06:42:47;98999.31;;;9.15;100.00
39897;BME280;25567;48.276;14.242;2022-10-31T06:45:13;98997.47;;;9.16;100.00
39897;BME280;25567;48.276;14.242;2022-10-31T06:47:40;99005.19;;;9.17;100.00
39897;BME280;25567;48.276;14.242;2022-10-31T06:50:27;98998.09;;;9.18;100.00
39897;BME280;25567;48.276;14.242;2022-10-31T06:52:55;99002.75;;;9.16;100.00
39897;BME280;25567;48.276;14.242;2022-10-31T06:55:23;99002.34;;;9.19;100.00
39897;BME280;25567;48.276;14.242;2022-10-31T07:00:18;99004.38;;;9.17;100.00
39897;BME280;25567;48.276;14.242;2022-10-31T07:05:21;99001.94;;;9.22;100.00
39897;BME280;25567;48.276;14.242;2022-10-31T07:07:51;99007.03;;;9.24;100.00
39897;BME280;25567;48.276;14.242;2022-10-31T07:10:18;99010.06;;;9.27;100.00
39897;BME280;25567;48.276;14.242;2022-10-31T07:12:54;99004.16;;;9.25;100.00
39897;BME280;25567;48.276;14.242;2022-10-31T07:15:21;99013.53;;;9.28;100.00
39897;BME280;25567;48.276;14.242;2022-10-31T07:17:48;99011.69;;;9.28;100.00
39897;BME280;25567;48.276;14.242;2022-10-31T07:20:15;99007.22;;;9.29;100.00
39897;BME280;25567;48.276;14.242;2022-10-31T07:22:42;99010.66;;;9.29;100.00
39897;BME280;25567;48.276;14.242;2022-10-31T07:25:15;99007.44;;;9.27;100.00
39897;BME280;25567;48.276;14.242;2022-10-31T07:27:45;99000.09;;;9.29;100.00
39897;BME280;25567;48.276;14.242;2022-10-31T07:30:12;99003.94;;;9.27;100.00
39897;BME280;25567;48.276;14.242;2022-10-31T07:32:41;98999.69;;;9.26;100.00
39897;BME280;25567;48.276;14.242;2022-10-31T07:35:09;99004.59;;;9.22;100.00
39897;BME280;25567;48.276;14.242;2022-10-31T07:37:36;99002.34;;;9.19;100.00
39897;BME280;25567;48.276;14.242;2022-10-31T07:40:04;99002.94;;;9.28;100.00
39897;BME280;25567;48.276;14.242;2022-10-31T07:42:40;99006.22;;;9.23;100.00
39897;BME280;25567;48.276;14.242;2022-10-31T07:45:09;99008.44;;;9.26;100.00
39897;BME280;25567;48.276;14.242;2022-10-31T07:47:40;99004.19;;;9.18;100.00
39897;BME280;25567;48.276;14.242;2022-10-31T07:50:08;99008.47;;;9.20;100.00
39897;BME280;25567;48.276;14.242;2022-10-31T07:52:36;99007.03;;;9.17;100.00
39897;BME280;25567;48.276;14.242;2022-10-31T07:55:03;99006.00;;;9.25;100.00
39897;BME280;25567;48.276;14.242;2022-10-31T07:57:30;99004.38;;;9.24;100.00
39897;BME280;25567;48.276;14.242;2022-10-31T08:00:00;99002.50;;;9.31;100.00
39897;BME280;25567;48.276;14.242;2022-10-31T08:02:27;99001.72;;;9.24;100.00
39897;BME280;25567;48.276;14.242;2022-10-31T08:04:53;98998.06;;;9.25;100.00
39897;BME280;25567;48.276;14.242;2022-10-31T08:07:26;98993.19;;;9.15;100.00
39897;BME280;25567;48.276;14.242;2022-10-31T08:09:54;98991.94;;;9.31;100.00
39897;BME280;25567;48.276;14.242;2022-10-31T08:12:21;98994.41;;;9.32;100.00
39897;BME280;25567;48.276;14.242;2022-10-31T08:14:48;98991.34;;;9.29;100.00
39897;BME280;25567;48.276;14.242;2022-10-31T08:17:14;98987.47;;;9.25;100.00
39897;BME280;25567;48.276;14.242;2022-10-31T08:19:41;98987.69;;;9.30;100.00
39897;BME280;25567;48.276;14.242;2022-10-31T08:22:08;98985.84;;;9.24;100.00
39897;BME280;25567;48.276;14.242;2022-10-31T08:24:34;98985.03;;;9.23;100.00
39897;BME280;25567;48.276;14.242;2022-10-31T08:27:01;98991.53;;;9.41;100.00
39897;BME280;25567;48.276;14.242;2022-10-31T08:29:28;98995.97;;;9.40;100.00
39897;BME280;25567;48.276;14.242;2022-10-31T08:31:54;98995.19;;;9.40;100.00
39897;BME280;25567;48.276;14.242;2022-10-31T08:34:21;98997.22;;;9.44;100.00
39897;BME280;25567;48.276;14.242;2022-10-31T08:36:48;98989.28;;;9.31;100.00
39897;BME280;25567;48.276;14.242;2022-10-31T08:39:14;98991.13;;;9.37;100.00
39897;BME280;25567;48.276;14.242;2022-10-31T08:41:41;98986.03;;;9.29;100.00
39897;BME280;25567;48.276;14.242;2022-10-31T08:44:07;98989.91;;;9.33;100.00
39897;BME280;25567;48.276;14.242;2022-10-31T08:46:34;98979.31;;;9.33;100.00
39897;BME280;25567;48.276;14.242;2022-10-31T08:49:02;98985.44;;;9.20;100.00
39897;BME280;25567;48.276;14.242;2022-10-31T08:51:29;98979.28;;;9.40;100.00
39897;BME280;25567;48.276;14.242;2022-10-31T08:53:56;98981.16;;;9.32;100.00
39897;BME280;25567;48.276;14.242;2022-10-31T08:56:22;98979.75;;;9.23;100.00
39897;BME280;25567;48.276;14.242;2022-10-31T08:58:49;98987.88;;;9.15;100.00
39897;BME280;25567;48.276;14.242;2022-10-31T09:01:17;98978.53;;;9.26;100.00
39897;BME280;25567;48.276;14.242;2022-10-31T09:03:44;98973.25;;;9.19;100.00
39897;BME280;25567;48.276;14.242;2022-10-31T09:06:11;98970.19;;;9.15;100.00
39897;BME280;25567;48.276;14.242;2022-10-31T09:08:38;98960.63;;;9.14;100.00
39897;BME280;25567;48.276;14.242;2022-10-31T09:11:04;98962.84;;;9.11;100.00
39897;BME280;25567;48.276;14.242;2022-10-31T09:13:32;98957.75;;;9.16;100.00
39897;BME280;25567;48.276;14.242;2022-10-31T09:16:06;98951.44;;;9.17;100.00
39897;BME280;25567;48.276;14.242;2022-10-31T09:18:33;98949.81;;;9.23;100.00
39897;BME280;25567;48.276;14.242;2022-10-31T09:21:00;98954.50;;;9.21;100.00
39897;BME280;25567;48.276;14.242;2022-10-31T09:23:27;98957.75;;;9.23;100.00
39897;BME280;25567;48.276;14.242;2022-10-31T09:25:54;98947.38;;;9.21;100.00
39897;BME280;25567;48.276;14.242;2022-10-31T09:28:23;98946.16;;;9.17;100.00
39897;BME280;25567;48.276;14.242;2022-10-31T09:30:52;98946.97;;;9.17;100.00
39897;BME280;25567;48.276;14.242;2022-10-31T09:33:20;98947.19;;;9.16;100.00
39897;BME280;25567;48.276;14.242;2022-10-31T09:35:47;98947.78;;;9.18;100.00
39897;BME280;25567;48.276;14.242;2022-10-31T09:38:16;98945.16;;;9.18;100.00
39897;BME280;25567;48.276;14.242;2022-10-31T09:40:46;98945.53;;;9.22;100.00
39897;BME280;25567;48.276;14.242;2022-10-31T09:51:20;98932.09;;;9.30;100.00
39897;BME280;25567;48.276;14.242;2022-10-31T09:54:06;98928.81;;;9.34;100.00
39897;BME280;25567;48.276;14.242;2022-10-31T09:56:37;98932.88;;;9.37;100.00
39897;BME280;25567;48.276;14.242;2022-10-31T09:59:10;98926.75;;;9.43;100.00
39897;BME280;25567;48.276;14.242;2022-10-31T10:01:45;98926.69;;;9.57;100.00
39897;BME280;25567;48.276;14.242;2022-10-31T10:04:35;98928.53;;;9.49;100.00
39897;BME280;25567;48.276;14.242;2022-10-31T10:07:11;98925.72;;;9.51;100.00
39897;BME280;25567;48.276;14.242;2022-10-31T10:09:40;98928.72;;;9.55;100.00
39897;BME280;25567;48.276;14.242;2022-10-31T10:12:18;98919.38;;;9.52;100.00
39897;BME280;25567;48.276;14.242;2022-10-31T10:20:24;98916.50;;;9.60;100.00
39897;BME280;25567;48.276;14.242;2022-10-31T10:23:02;98918.50;;;9.65;100.00
39897;BME280;25567;48.276;14.242;2022-10-31T10:25:39;98914.44;;;9.62;100.00
39897;BME280;25567;48.276;14.242;2022-10-31T10:33:33;98907.44;;;9.75;100.00
39897;BME280;25567;48.276;14.242;2022-10-31T10:36:08;98897.25;;;9.78;100.00
39897;BME280;25567;48.276;14.242;2022-10-31T10:38:39;98896.84;;;9.81;100.00
39897;BME280;25567;48.276;14.242;2022-10-31T10:41:16;98892.34;;;9.82;100.00
39897;BME280;25567;48.276;14.242;2022-10-31T10:43:43;98891.53;;;9.81;100.00
39897;BME280;25567;48.276;14.242;2022-10-31T10:49:30;98882.97;;;9.79;100.00
39897;BME280;25567;48.276;14.242;2022-10-31T10:52:16;98873.00;;;9.81;100.00
39897;BME280;25567;48.276;14.242;2022-10-31T10:58:03;98872.69;;;9.96;100.00
39897;BME280;25567;48.276;14.242;2022-10-31T11:00:47;98874.06;;;10.06;100.00
39897;BME280;25567;48.276;14.242;2022-10-31T11:03:18;98863.84;;;10.09;100.00
39897;BME280;25567;48.276;14.242;2022-10-31T11:08:25;98852.84;;;10.06;100.00
39897;BME280;25567;48.276;14.242;2022-10-31T11:14:03;98845.44;;;10.14;100.00
39897;BME280;25567;48.276;14.242;2022-10-31T11:16:35;98844.19;;;10.17;100.00
39897;BME280;25567;48.276;14.242;2022-10-31T11:19:19;98850.69;;;10.21;100.00
39897;BME280;25567;48.276;14.242;2022-10-31T11:21:47;98847.63;;;10.24;100.00
39897;BME280;25567;48.276;14.242;2022-10-31T11:24:22;98833.91;;;10.27;100.00
39897;BME280;25567;48.276;14.242;2022-10-31T11:26:52;98835.50;;;10.35;100.00
39897;BME280;25567;48.276;14.242;2022-10-31T11:29:32;98826.72;;;10.34;100.00
39897;BME280;25567;48.276;14.242;2022-10-31T11:32:00;98824.34;;;10.51;100.00
39897;BME280;25567;48.276;14.242;2022-10-31T11:34:42;98821.91;;;10.50;100.00
39897;BME280;25567;48.276;14.242;2022-10-31T11:37:16;98816.03;;;10.48;100.00
39897;BME280;25567;48.276;14.242;2022-10-31T11:39:45;98807.41;;;10.52;100.00
39897;BME280;25567;48.276;14.242;2022-10-31T11:42:22;98809.25;;;10.52;100.00
39897;BME280;25567;48.276;14.242;2022-10-31T11:44:50;98808.28;;;10.65;100.00
39897;BME280;25567;48.276;14.242;2022-10-31T11:47:23;98804.19;;;10.69;100.00
39897;BME280;25567;48.276;14.242;2022-10-31T11:49:51;98801.25;;;10.77;100.00
39897;BME280;25567;48.276;14.242;2022-10-31T11:52:23;98804.47;;;10.98;100.00
39897;BME280;25567;48.276;14.242;2022-10-31T11:59:55;98785.00;;;10.85;100.00
39897;BME280;25567;48.276;14.242;2022-10-31T12:02:23;98784.38;;;10.90;100.00
39897;BME280;25567;48.276;14.242;2022-10-31T12:07:23;98774.34;;;11.23;100.00
39897;BME280;25567;48.276;14.242;2022-10-31T12:09:50;98776.28;;;11.15;100.00
39897;BME280;25567;48.276;14.242;2022-10-31T12:21:09;98756.47;;;11.18;100.00
39897;BME280;25567;48.276;14.242;2022-10-31T12:29:26;98750.81;;;11.26;100.00
39897;BME280;25567;48.276;14.242;2022-10-31T12:32:56;98738.84;;;11.35;100.00
39897;BME280;25567;48.276;14.242;2022-10-31T12:38:20;98732.50;;;11.37;100.00
39897;BME280;25567;48.276;14.242;2022-10-31T12:43:46;98722.31;;;11.33;100.00
39897;BME280;25567;48.276;14.242;2022-10-31T12:46:26;98722.22;;;11.40;100.00
39897;BME280;25567;48.276;14.242;2022-10-31T12:51:57;98717.19;;;11.62;100.00
39897;BME280;25567;48.276;14.242;2022-10-31T12:54:35;98714.44;;;11.69;100.00
39897;BME280;25567;48.276;14.242;2022-10-31T12:59:49;98706.94;;;12.01;100.00
39897;BME280;25567;48.276;14.242;2022-10-31T13:02:26;98696.78;;;12.10;100.00
39897;BME280;25567;48.276;14.242;2022-10-31T13:05:13;98692.19;;;12.17;100.00
39897;BME280;25567;48.276;14.242;2022-10-31T13:07:45;98694.78;;;12.29;100.00
39897;BME280;25567;48.276;14.242;2022-10-31T13:10:19;98689.94;;;12.38;100.00
39897;BME280;25567;48.276;14.242;2022-10-31T13:12:51;98690.63;;;12.45;100.00
39897;BME280;25567;48.276;14.242;2022-10-31T13:15:23;98682.47;;;12.64;100.00
39897;BME280;25567;48.276;14.242;2022-10-31T13:17:54;98672.63;;;12.64;100.00
39897;BME280;25567;48.276;14.242;2022-10-31T13:22:55;98673.31;;;13.00;100.00
39897;BME280;25567;48.276;14.242;2022-10-31T13:25:26;98666.00;;;13.08;100.00
39897;BME280;25567;48.276;14.242;2022-10-31T13:27:59;98672.25;;;13.01;100.00
39897;BME280;25567;48.276;14.242;2022-10-31T13:30:31;98666.00;;;13.08;100.00
39897;BME280;25567;48.276;14.242;2022-10-31T13:33:03;98666.81;;;13.25;100.00
39897;BME280;25567;48.276;14.242;2022-10-31T13:35:52;98664.19;;;13.42;100.00
39897;BME280;25567;48.276;14.242;2022-10-31T13:38:38;98663.47;;;13.64;100.00
39897;BME280;25567;48.276;14.242;2022-10-31T13:44:01;98662.94;;;13.84;100.00
39897;BME280;25567;48.276;14.242;2022-10-31T13:48:57;98657.44;;;13.91;100.00
39897;BME280;25567;48.276;14.242;2022-10-31T13:51:27;98654.13;;;14.00;100.00
39897;BME280;25567;48.276;14.242;2022-10-31T13:56:30;98661.66;;;14.26;100.00
39897;BME280;25567;48.276;14.242;2022-10-31T13:59:11;98663.13;;;14.39;100.00
39897;BME280;25567;48.276;14.242;2022-10-31T14:04:20;98653.09;;;14.46;100.00
39897;BME280;25567;48.276;14.242;2022-10-31T14:12:06;98644.09;;;14.74;100.00
39897;BME280;25567;48.276;14.242;2022-10-31T14:14:42;98642.06;;;14.87;100.00
39897;BME280;25567;48.276;14.242;2022-10-31T14:17:26;98640.88;;;14.99;100.00
39897;BME280;25567;48.276;14.242;2022-10-31T14:22:46;98644.50;;;15.15;100.00
39897;BME280;25567;48.276;14.242;2022-10-31T14:25:31;98641.53;;;15.44;100.00
39897;BME280;25567;48.276;14.242;2022-10-31T14:28:01;98635.44;;;15.54;100.00
39897;BME280;25567;48.276;14.242;2022-10-31T14:30:30;98636.03;;;15.61;100.00
39897;BME280;25567;48.276;14.242;2022-10-31T14:33:00;98632.84;;;15.64;100.00
39897;BME280;25567;48.276;14.242;2022-10-31T14:35:43;98633.34;;;15.99;100.00
39897;BME280;25567;48.276;14.242;2022-10-31T14:38:24;98629.41;;;16.12;99.33
39897;BME280;25567;48.276;14.242;2022-10-31T14:41:15;98631.72;;;16.56;96.42
39897;BME280;25567;48.276;14.242;2022-10-31T14:43:59;98626.41;;;16.77;92.71
39897;BME280;25567;48.276;14.242;2022-10-31T14:51:45;98621.31;;;16.01;94.99
39897;BME280;25567;48.276;14.242;2022-10-31T14:54:15;98620.78;;;15.99;96.91
39897;BME280;25567;48.276;14.242;2022-10-31T14:56:49;98618.31;;;15.93;97.32
39897;BME280;25567;48.276;14.242;2022-10-31T14:59:20;98619.84;;;15.78;97.37
39897;BME280;25567;48.276;14.242;2022-10-31T15:01:57;98613.22;;;15.48;99.10
39897;BME280;25567;48.276;14.242;2022-10-31T15:04:27;98613.16;;;15.06;100.00